Time,TemperatureF,DewpointF,PressureIn,WindDirection,WindDirectionDegrees,WindSpeedMPH,WindSpeedGustMPH,Humidity,HourlyPrecipIn,Conditions,Clouds,dailyrainin,SolarRadiationWatts/m^2,SoftwareType,DateUTC
2013-07-13 00:01:00,61.0,46.0,-100.00,NNE,18,3.0,9.0,57,0.00,,,0.00,0.000000,,2013-07-13 06:01:00,
2013-07-13 00:11:00,61.0,46.0,-100.00,NNE,18,3.0,9.0,57,0.00,,,0.00,0.000000,,2013-07-13 06:11:00,
2013-07-13 00:22:00,61.0,46.0,-100.00,NNE,18,3.0,9.0,57,0.00,,,0.00,0.000000,,2013-07-13 06:22:00,
2013-07-13 00:32:00,61.0,46.0,-100.00,NNE,18,3.0,9.0,57,0.00,,,0.00,0.000000,,2013-07-13 06:32:00,
2013-07-13 01:02:00,58.0,46.0,-100.00,NNW,338,3.0,7.0,64,0.00,,,0.00,0.000000,,2013-07-13 07:02:00,
2013-07-13 01:11:00,58.0,46.0,-100.00,NNW,338,3.0,7.0,64,0.00,,,0.00,0.000000,,2013-07-13 07:11:00,
2013-07-13 01:22:00,58.0,46.0,-100.00,NNW,338,3.0,7.0,64,0.00,,,0.00,0.000000,,2013-07-13 07:22:00,
2013-07-13 01:33:00,58.0,46.0,-100.00,NNW,338,3.0,7.0,64,0.00,,,0.00,0.000000,,2013-07-13 07:33:00,
2013-07-13 02:02:00,57.0,46.0,-100.00,North,360,2.0,5.0,67,0.00,,,0.00,0.000000,,2013-07-13 08:02:00,
2013-07-13 02:11:00,57.0,46.0,-100.00,North,360,2.0,5.0,67,0.00,,,0.00,0.000000,,2013-07-13 08:11:00,
2013-07-13 02:22:00,57.0,46.0,-100.00,North,360,2.0,5.0,67,0.00,,,0.00,0.000000,,2013-07-13 08:22:00,
2013-07-13 02:33:00,57.0,46.0,-100.00,North,360,2.0,5.0,67,0.00,,,0.00,0.000000,,2013-07-13 08:33:00,
2013-07-13 03:02:00,54.0,46.0,-100.00,North,3,5.0,7.0,73,0.00,,,0.00,0.000000,,2013-07-13 09:02:00,
2013-07-13 03:11:00,54.0,46.0,-100.00,North,3,5.0,7.0,73,0.00,,,0.00,0.000000,,2013-07-13 09:11:00,
2013-07-13 03:22:00,54.0,46.0,-100.00,North,3,5.0,7.0,73,0.00,,,0.00,0.000000,,2013-07-13 09:22:00,
2013-07-13 03:33:00,54.0,46.0,-100.00,North,3,5.0,7.0,73,0.00,,,0.00,0.000000,,2013-07-13 09:33:00,
2013-07-13 04:01:00,54.0,45.0,-100.00,NNW,347,4.0,7.0,71,0.00,,,0.00,0.000000,,2013-07-13 10:01:00,
2013-07-13 04:11:00,54.0,45.0,-100.00,NNW,347,4.0,7.0,71,0.00,,,0.00,0.000000,,2013-07-13 10:11:00,
2013-07-13 04:22:00,54.0,45.0,-100.00,NNW,347,4.0,7.0,71,0.00,,,0.00,0.000000,,2013-07-13 10:22:00,
2013-07-13 04:32:00,54.0,45.0,-100.00,NNW,347,4.0,7.0,71,0.00,,,0.00,0.000000,,2013-07-13 10:32:00,
2013-07-13 08:02:00,56.0,49.0,-100.00,NNW,332,2.0,8.0,76,-99.99,,,0.00,64.000000,,2013-07-13 14:02:00,
2013-07-13 08:11:00,56.0,49.0,-100.00,NNW,332,2.0,8.0,76,-99.99,,,0.00,64.000000,,2013-07-13 14:11:00,
2013-07-13 08:22:00,56.0,49.0,-100.00,NNW,332,2.0,8.0,76,-99.99,,,0.00,64.000000,,2013-07-13 14:22:00,
2013-07-13 09:02:00,66.0,48.0,-100.00,SSE,161,5.0,7.0,52,-99.99,,,-99.99,264.000000,,2013-07-13 15:02:00,
2013-07-13 09:12:00,66.0,48.0,-100.00,SSE,161,5.0,7.0,52,-99.99,,,-99.99,264.000000,,2013-07-13 15:12:00,
2013-07-13 09:22:00,66.0,48.0,-100.00,SSE,161,5.0,7.0,52,-99.99,,,-99.99,264.000000,,2013-07-13 15:22:00,
2013-07-13 09:33:00,66.0,48.0,-100.00,SSE,161,5.0,7.0,52,-99.99,,,-99.99,264.000000,,2013-07-13 15:33:00,
2013-07-13 10:02:00,71.0,47.0,-100.00,SSE,152,11.0,16.0,42,0.00,,,0.00,503.000000,,2013-07-13 16:02:00,
2013-07-13 10:11:00,71.0,47.0,-100.00,SSE,152,11.0,16.0,42,0.00,,,0.00,503.000000,,2013-07-13 16:11:00,
2013-07-13 10:22:00,71.0,47.0,-100.00,SSE,152,11.0,16.0,42,0.00,,,0.00,503.000000,,2013-07-13 16:22:00,
2013-07-13 10:33:00,71.0,47.0,-100.00,SSE,152,11.0,16.0,42,0.00,,,0.00,503.000000,,2013-07-13 16:33:00,
2013-07-13 11:01:00,73.0,48.0,-100.00,SE,135,11.0,18.0,41,0.00,,,0.00,494.000000,,2013-07-13 17:01:00,
2013-07-13 11:12:00,73.0,48.0,-100.00,SE,135,11.0,18.0,41,0.00,,,0.00,494.000000,,2013-07-13 17:12:00,
2013-07-13 11:22:00,73.0,48.0,-100.00,SE,135,11.0,18.0,41,0.00,,,0.00,494.000000,,2013-07-13 17:22:00,
2013-07-13 11:33:00,73.0,48.0,-100.00,SE,135,11.0,18.0,41,0.00,,,0.00,494.000000,,2013-07-13 17:33:00,
2013-07-13 12:01:00,78.0,47.0,-100.00,SSE,148,10.0,19.0,33,0.00,,,0.00,866.000000,,2013-07-13 18:01:00,
2013-07-13 12:11:00,78.0,47.0,-100.00,SSE,148,10.0,19.0,33,0.00,,,0.00,866.000000,,2013-07-13 18:11:00,
2013-07-13 12:22:00,78.0,47.0,-100.00,SSE,148,10.0,19.0,33,0.00,,,0.00,866.000000,,2013-07-13 18:22:00,
2013-07-13 12:32:00,78.0,47.0,-100.00,SSE,148,10.0,19.0,33,0.00,,,0.00,866.000000,,2013-07-13 18:32:00,
2013-07-13 13:02:00,77.0,46.0,-100.00,SE,127,5.0,18.0,33,0.00,,,0.00,860.000000,,2013-07-13 19:02:00,
2013-07-13 13:11:00,77.0,46.0,-100.00,SE,127,5.0,18.0,33,0.00,,,0.00,860.000000,,2013-07-13 19:11:00,
2013-07-13 13:22:00,77.0,46.0,-100.00,SE,127,5.0,18.0,33,0.00,,,0.00,860.000000,,2013-07-13 19:22:00,
2013-07-13 13:32:00,77.0,46.0,-100.00,SE,127,5.0,18.0,33,0.00,,,0.00,860.000000,,2013-07-13 19:32:00,
2013-07-13 17:01:00,76.0,49.0,-100.00,SSE,154,5.0,12.0,38,0.00,,,0.41,578.000000,,2013-07-13 23:01:00,
2013-07-13 17:11:00,76.0,49.0,-100.00,SSE,154,5.0,12.0,38,0.00,,,0.41,578.000000,,2013-07-13 23:11:00,
2013-07-13 17:22:00,76.0,49.0,-100.00,SSE,154,5.0,12.0,38,0.00,,,0.41,578.000000,,2013-07-13 23:22:00,
2013-07-13 17:32:00,76.0,49.0,-100.00,SSE,154,5.0,12.0,38,0.00,,,0.41,578.000000,,2013-07-13 23:32:00,
2013-07-13 18:01:00,72.0,46.0,-100.00,NW,305,6.0,12.0,40,0.00,,,0.41,282.000000,,2013-07-14 00:01:00,
2013-07-13 18:11:00,72.0,46.0,-100.00,NW,305,6.0,12.0,40,0.00,,,0.41,282.000000,,2013-07-14 00:11:00,
2013-07-13 18:21:00,72.0,46.0,-100.00,NW,305,6.0,12.0,40,0.00,,,0.41,282.000000,,2013-07-14 00:21:00,
2013-07-13 18:33:00,72.0,46.0,-100.00,NW,305,6.0,12.0,40,0.00,,,0.41,282.000000,,2013-07-14 00:33:00,
2013-07-13 19:02:00,70.0,47.0,-100.00,NNW,343,7.0,13.0,44,0.00,,,0.41,130.000000,,2013-07-14 01:02:00,
2013-07-13 19:11:00,70.0,47.0,-100.00,NNW,343,7.0,13.0,44,0.00,,,0.41,130.000000,,2013-07-14 01:11:00,
2013-07-13 19:22:00,70.0,47.0,-100.00,NNW,343,7.0,13.0,44,0.00,,,0.41,130.000000,,2013-07-14 01:22:00,
2013-07-13 19:32:00,70.0,47.0,-100.00,NNW,343,7.0,13.0,44,0.00,,,0.41,130.000000,,2013-07-14 01:32:00,
2013-07-13 20:01:00,67.0,51.0,-100.00,NE,35,4.0,10.0,56,0.00,,,0.41,46.000000,,2013-07-14 02:01:00,
2013-07-13 20:11:00,67.0,51.0,-100.00,NE,35,4.0,10.0,56,0.00,,,0.41,46.000000,,2013-07-14 02:11:00,
2013-07-13 20:22:00,67.0,51.0,-100.00,NE,35,4.0,10.0,56,0.00,,,0.41,46.000000,,2013-07-14 02:22:00,
2013-07-13 20:32:00,67.0,51.0,-100.00,NE,35,4.0,10.0,56,0.00,,,0.41,46.000000,,2013-07-14 02:32:00,
2013-07-13 21:01:00,64.0,51.0,-100.00,NNW,345,3.0,8.0,63,0.00,,,0.41,8.000000,,2013-07-14 03:01:00,
2013-07-13 21:11:00,64.0,51.0,-100.00,NNW,345,3.0,8.0,63,0.00,,,0.41,8.000000,,2013-07-14 03:11:00,
2013-07-13 21:22:00,64.0,51.0,-100.00,NNW,345,3.0,8.0,63,0.00,,,0.41,8.000000,,2013-07-14 03:22:00,
2013-07-13 21:32:00,64.0,51.0,-100.00,NNW,345,3.0,8.0,63,0.00,,,0.41,8.000000,,2013-07-14 03:32:00,
2013-07-13 22:02:00,64.0,49.0,-100.00,NW,326,6.0,10.0,58,0.00,,,0.41,0.000000,,2013-07-14 04:02:00,
2013-07-13 22:11:00,64.0,49.0,-100.00,NW,326,6.0,10.0,58,0.00,,,0.41,0.000000,,2013-07-14 04:11:00,
2013-07-13 22:22:00,64.0,49.0,-100.00,NW,326,6.0,10.0,58,0.00,,,0.41,0.000000,,2013-07-14 04:22:00,
2013-07-13 22:32:00,64.0,49.0,-100.00,NW,326,6.0,10.0,58,0.00,,,0.41,0.000000,,2013-07-14 04:32:00,
2013-07-13 23:02:00,64.0,50.0,-100.00,East,79,7.0,13.0,61,0.00,,,0.41,0.000000,,2013-07-14 05:02:00,
2013-07-13 23:11:00,64.0,50.0,-100.00,East,79,7.0,13.0,61,0.00,,,0.41,0.000000,,2013-07-14 05:11:00,
2013-07-13 23:23:00,64.0,50.0,-100.00,East,79,7.0,13.0,61,0.00,,,0.41,0.000000,,2013-07-14 05:23:00,
2013-07-13 23:32:00,64.0,50.0,-100.00,East,79,7.0,13.0,61,0.00,,,0.41,0.000000,,2013-07-14 05:32:00,